Hakkou 21 — JM6662 — position and weather

sailwx.info

Track history (hours):
 
Tides and Currents Weather Stations Pressure Air Temp Water Temp Dewpoint Dewpoint Depression Visibility Wind Speed Wind Dir Waves Ship Positions

Hakkou 21

Last reported at 2017-Sep-24 19:01 UTC. Time now 2017-Sep-24 19:17 UTC.
Position N 34°11' E 134°58'.

Length 121 m; draft 5 m.

Type: Cargo ship. MMSI: 431602082.

Date/timePositionNaut miles runAvg speedWind from/ knotsBaromVisibWave heightAir tempDewpointWater temp
2017-Sep-24 19:01N 34°11' E 134°58'815.7
2017-Sep-24 18:30N 34°03' E 134°57'  
2017-Sep-22 01:54N 34°31' E 135°24'0 0.0
2017-Sep-22 01:18N 34°31' E 135°24'0 0.0
2017-Sep-22 00:48N 34°31' E 135°24'0 0.0
2017-Sep-21 23:24N 34°31' E 135°24'0 0.0
2017-Sep-21 23:00N 34°31' E 135°24'0 0.0
2017-Sep-21 22:30N 34°31' E 135°24'0 0.1
2017-Sep-21 22:00N 34°31' E 135°24'2 4.9
2017-Sep-21 21:30N 34°32' E 135°21'816.0
2017-Sep-21 21:00N 34°28' E 135°13'815.7
2017-Sep-21 20:30N 34°23' E 135°06'815.7
2017-Sep-21 20:00N 34°17' E 134°59'714.9
2017-Sep-21 19:30N 34°09' E 135°00'815.7
2017-Sep-21 19:00N 34°02' E 134°58'6 0.2
2017-Sep-20 05:13N 34°08' E 134°56'617.9
2017-Sep-20 04:55N 34°13' E 134°58'818.4
2017-Sep-20 04:29N 34°21' E 135°00'816.5
2017-Sep-20 04:00N 34°26' E 135°08'816.3
2017-Sep-20 03:30N 34°30' E 135°16'611.3
2017-Sep-20 02:57N 34°31' E 135°23'0 0.4
2017-Sep-20 02:26N 34°31' E 135°24'0 0.0
2017-Sep-20 01:56N 34°31' E 135°24'0 0.0
2017-Sep-20 01:26N 34°31' E 135°24'0 0.0
2017-Sep-20 00:44N 34°31' E 135°24'0 0.0
2017-Sep-19 23:26N 34°31' E 135°24'0 0.0
2017-Sep-19 22:44N 34°31' E 135°24'0 0.0
2017-Sep-19 22:14N 34°31' E 135°24'0 0.0
2017-Sep-19 21:50N 34°31' E 135°24'1 1.7
2017-Sep-19 21:30N 34°31' E 135°23'612.0
2017-Sep-19 21:00N 34°31' E 135°16'816.4
2017-Sep-19 20:30N 34°26' E 135°08'916.8
2017-Sep-19 19:58N 34°19' E 135°01'715.6
2017-Sep-19 19:30N 34°12' E 134°60'816.7
2017-Sep-19 19:00N 34°04' E 134°57'12 0.3
2017-Sep-18 06:05N 34°16' E 134°58'217.4
2017-Sep-18 05:58N 34°18' E 134°59'816.8
2017-Sep-18 05:30N 34°25' E 135°04'918.0
2017-Sep-18 05:00N 34°30' E 135°13'816.0
2017-Sep-18 04:30N 34°32' E 135°22'1 2.4
2017-Sep-18 03:54N 34°31' E 135°24'0 0.0
2017-Sep-18 02:13N 34°31' E 135°24'0 0.0
2017-Sep-18 00:31N 34°31' E 135°24'0 0.1
2017-Sep-17 23:59N 34°31' E 135°24'2 3.9
2017-Sep-17 23:28N 34°32' E 135°22'715.9
2017-Sep-17 23:00N 34°33' E 135°13'917.1
2017-Sep-17 22:30N 34°36' E 135°03'612.7
2017-Sep-17 22:00N 34°36' E 134°55'  
2017-Sep-15 05:15N 34°15' E 134°58'616.3
2017-Sep-15 04:52N 34°21' E 135°00'616.6
2017-Sep-15 04:29N 34°25' E 135°05'817.6
2017-Sep-15 04:00N 34°30' E 135°14'713.2
2017-Sep-15 03:30N 34°32' E 135°21'2 0.6
2017-Sep-14 23:54N 34°31' E 135°24'0 0.0
2017-Sep-14 23:30N 34°31' E 135°24'0 0.0
2017-Sep-14 22:48N 34°31' E 135°24'0 0.0
2017-Sep-14 22:18N 34°31' E 135°24'0 0.7
2017-Sep-14 22:00N 34°31' E 135°23'4 9.0
2017-Sep-14 21:30N 34°30' E 135°18'816.5
2017-Sep-14 21:00N 34°25' E 135°10'816.5
2017-Sep-14 20:29N 34°20' E 135°02'714.9
2017-Sep-14 20:00N 34°13' E 134°60'816.7
2017-Sep-14 19:30N 34°05' E 134°59'  
Track history (hours):
 
Tides and Currents Weather Stations Pressure Air Temp Water Temp Dewpoint Dewpoint Depression Visibility Wind Speed Wind Dir Waves Ship Positions

Hakkou 21

Last reported at 2017-Sep-24 19:01 UTC. Time now 2017-Sep-24 19:17 UTC.
Position N 34°11' E 134°58'.

Length 121 m; draft 5 m.

Type: Cargo ship. MMSI: 431602082.

Date/timePositionNaut miles runAvg speedWind from/ knotsBaromVisibWave heightAir tempDewpointWater temp
2017-Sep-24 19:01N 34°11' E 134°58'815.7
2017-Sep-24 18:30N 34°03' E 134°57'  
2017-Sep-22 01:54N 34°31' E 135°24'0 0.0
2017-Sep-22 01:18N 34°31' E 135°24'0 0.0
2017-Sep-22 00:48N 34°31' E 135°24'0 0.0
2017-Sep-21 23:24N 34°31' E 135°24'0 0.0
2017-Sep-21 23:00N 34°31' E 135°24'0 0.0
2017-Sep-21 22:30N 34°31' E 135°24'0 0.1
2017-Sep-21 22:00N 34°31' E 135°24'2 4.9
2017-Sep-21 21:30N 34°32' E 135°21'816.0
2017-Sep-21 21:00N 34°28' E 135°13'815.7
2017-Sep-21 20:30N 34°23' E 135°06'815.7
2017-Sep-21 20:00N 34°17' E 134°59'714.9
2017-Sep-21 19:30N 34°09' E 135°00'815.7
2017-Sep-21 19:00N 34°02' E 134°58'6 0.2
2017-Sep-20 05:13N 34°08' E 134°56'617.9
2017-Sep-20 04:55N 34°13' E 134°58'818.4
2017-Sep-20 04:29N 34°21' E 135°00'816.5
2017-Sep-20 04:00N 34°26' E 135°08'816.3
2017-Sep-20 03:30N 34°30' E 135°16'611.3
2017-Sep-20 02:57N 34°31' E 135°23'0 0.4
2017-Sep-20 02:26N 34°31' E 135°24'0 0.0
2017-Sep-20 01:56N 34°31' E 135°24'0 0.0
2017-Sep-20 01:26N 34°31' E 135°24'0 0.0
2017-Sep-20 00:44N 34°31' E 135°24'0 0.0
2017-Sep-19 23:26N 34°31' E 135°24'0 0.0
2017-Sep-19 22:44N 34°31' E 135°24'0 0.0
2017-Sep-19 22:14N 34°31' E 135°24'0 0.0
2017-Sep-19 21:50N 34°31' E 135°24'1 1.7
2017-Sep-19 21:30N 34°31' E 135°23'612.0
2017-Sep-19 21:00N 34°31' E 135°16'816.4
2017-Sep-19 20:30N 34°26' E 135°08'916.8
2017-Sep-19 19:58N 34°19' E 135°01'715.6
2017-Sep-19 19:30N 34°12' E 134°60'816.7
2017-Sep-19 19:00N 34°04' E 134°57'12 0.3
2017-Sep-18 06:05N 34°16' E 134°58'217.4
2017-Sep-18 05:58N 34°18' E 134°59'816.8
2017-Sep-18 05:30N 34°25' E 135°04'918.0
2017-Sep-18 05:00N 34°30' E 135°13'816.0
2017-Sep-18 04:30N 34°32' E 135°22'1 2.4
2017-Sep-18 03:54N 34°31' E 135°24'0 0.0
2017-Sep-18 02:13N 34°31' E 135°24'0 0.0
2017-Sep-18 00:31N 34°31' E 135°24'0 0.1
2017-Sep-17 23:59N 34°31' E 135°24'2 3.9
2017-Sep-17 23:28N 34°32' E 135°22'715.9
2017-Sep-17 23:00N 34°33' E 135°13'917.1
2017-Sep-17 22:30N 34°36' E 135°03'612.7
2017-Sep-17 22:00N 34°36' E 134°55'  
2017-Sep-15 05:15N 34°15' E 134°58'616.3
2017-Sep-15 04:52N 34°21' E 135°00'616.6
2017-Sep-15 04:29N 34°25' E 135°05'817.6
2017-Sep-15 04:00N 34°30' E 135°14'713.2
2017-Sep-15 03:30N 34°32' E 135°21'2 0.6
2017-Sep-14 23:54N 34°31' E 135°24'0 0.0
2017-Sep-14 23:30N 34°31' E 135°24'0 0.0
2017-Sep-14 22:48N 34°31' E 135°24'0 0.0
2017-Sep-14 22:18N 34°31' E 135°24'0 0.7
2017-Sep-14 22:00N 34°31' E 135°23'4 9.0
2017-Sep-14 21:30N 34°30' E 135°18'816.5
2017-Sep-14 21:00N 34°25' E 135°10'816.5
2017-Sep-14 20:29N 34°20' E 135°02'714.9
2017-Sep-14 20:00N 34°13' E 134°60'816.7
2017-Sep-14 19:30N 34°05' E 134°59'  

Dump ship's entire track history